EZY221 EGJJ-EGGD
Flight info
| Callsign | EZY221 |
|---|---|
| Flight time | 0h 32m |
| Altitude | 20000 |
| Route | SKERY L22 EMWIP P16 FIMCA N22 BHD N864 DAWLY |
| Aircraft | A320/M-SDE3FGHIRWY/LB1 |
Departure
| Time | 2026-05-04 19:50 |
|---|---|
| Airport | Jersey Airport (EGJJ) |
Arrival
| Time | 2026-05-04 20:22 |
|---|---|
| Airport | Bristol Airport (EGGD) |
| Time | Latitude | Longitude | Altitude | Speed | Heading |
|---|---|---|---|---|---|
| 2026-05-04 19:21 | 49.20490 | -2.19618 | 282 ft | 0 kts | 14° |
| 2026-05-04 19:41 | 49.20489 | -2.19618 | 280 ft | 1 kts | 15° |
| 2026-05-04 19:41 | 49.20467 | -2.19624 | 288 ft | 4 kts | 356° |
| 2026-05-04 19:42 | 49.20442 | -2.19614 | 286 ft | 4 kts | 318° |
| 2026-05-04 19:42 | 49.20430 | -2.19587 | 283 ft | 1 kts | 285° |
| 2026-05-04 19:45 | 49.20432 | -2.19601 | 282 ft | 5 kts | 285° |
| 2026-05-04 19:45 | 49.20443 | -2.19660 | 284 ft | 5 kts | 282° |
| 2026-05-04 19:45 | 49.20444 | -2.19714 | 280 ft | 5 kts | 268° |
| 2026-05-04 19:45 | 49.20441 | -2.19760 | 280 ft | 4 kts | 264° |
| 2026-05-04 19:46 | 49.20437 | -2.19822 | 280 ft | 6 kts | 263° |
| 2026-05-04 19:46 | 49.20436 | -2.19882 | 280 ft | 5 kts | 283° |
| 2026-05-04 19:46 | 49.20459 | -2.19912 | 282 ft | 4 kts | 338° |
| 2026-05-04 19:46 | 49.20481 | -2.19920 | 280 ft | 3 kts | 350° |
| 2026-05-04 19:47 | 49.20505 | -2.19943 | 284 ft | 5 kts | 310° |
| 2026-05-04 19:47 | 49.20518 | -2.19990 | 280 ft | 5 kts | 289° |
| 2026-05-04 19:47 | 49.20537 | -2.20085 | 282 ft | 10 kts | 287° |
| 2026-05-04 19:47 | 49.20555 | -2.20173 | 284 ft | 7 kts | 287° |
| 2026-05-04 19:48 | 49.20571 | -2.20256 | 283 ft | 10 kts | 286° |
| 2026-05-04 19:48 | 49.20594 | -2.20374 | 280 ft | 12 kts | 287° |
| 2026-05-04 19:48 | 49.20617 | -2.20492 | 280 ft | 11 kts | 286° |
| 2026-05-04 19:48 | 49.20627 | -2.20594 | 281 ft | 9 kts | 272° |
| 2026-05-04 19:49 | 49.20640 | -2.20679 | 283 ft | 8 kts | 304° |
| 2026-05-04 19:49 | 49.20693 | -2.20688 | 285 ft | 11 kts | 30° |
| 2026-05-04 19:49 | 49.20707 | -2.20634 | 280 ft | 0 kts | 86° |
| 2026-05-04 19:49 | 49.20715 | -2.20527 | 280 ft | 43 kts | 83° |
| 2026-05-04 19:50 | 49.20794 | -2.19579 | 284 ft | 134 kts | 83° |
| 2026-05-04 19:50 | 49.20932 | -2.17908 | 726 ft | 168 kts | 82° |
| 2026-05-04 19:50 | 49.21073 | -2.16109 | 1750 ft | 171 kts | 81° |
| 2026-05-04 19:50 | 49.21264 | -2.14204 | 2184 ft | 193 kts | 79° |
| 2026-05-04 19:51 | 49.21592 | -2.12074 | 2535 ft | 220 kts | 67° |
| 2026-05-04 19:51 | 49.22469 | -2.10020 | 2966 ft | 246 kts | 44° |
| 2026-05-04 19:51 | 49.23953 | -2.08624 | 3736 ft | 257 kts | 20° |
| 2026-05-04 19:51 | 49.25733 | -2.08234 | 4712 ft | 263 kts | 356° |
| 2026-05-04 19:52 | 49.27504 | -2.09022 | 5654 ft | 270 kts | 332° |
| 2026-05-04 19:52 | 49.28945 | -2.10893 | 6584 ft | 275 kts | 313° |
| 2026-05-04 19:52 | 49.30209 | -2.13111 | 7505 ft | 278 kts | 312° |
| 2026-05-04 19:52 | 49.31487 | -2.15347 | 8453 ft | 281 kts | 312° |
| 2026-05-04 19:53 | 49.32806 | -2.17609 | 9265 ft | 288 kts | 313° |
| 2026-05-04 19:53 | 49.34170 | -2.19886 | 10123 ft | 292 kts | 313° |
| 2026-05-04 19:53 | 49.35523 | -2.22378 | 10471 ft | 316 kts | 309° |
| 2026-05-04 19:53 | 49.36933 | -2.25129 | 10754 ft | 340 kts | 308° |
| 2026-05-04 19:54 | 49.38439 | -2.28066 | 11080 ft | 359 kts | 308° |
| 2026-05-04 19:54 | 49.40038 | -2.31059 | 11724 ft | 366 kts | 313° |
| 2026-05-04 19:54 | 49.41820 | -2.33809 | 12442 ft | 370 kts | 318° |
| 2026-05-04 19:54 | 49.43768 | -2.36438 | 13182 ft | 374 kts | 321° |
| 2026-05-04 19:55 | 49.45786 | -2.38997 | 13897 ft | 379 kts | 322° |
| 2026-05-04 19:55 | 49.47830 | -2.41594 | 14539 ft | 383 kts | 321° |
| 2026-05-04 19:55 | 49.49851 | -2.44297 | 15176 ft | 387 kts | 319° |
| 2026-05-04 19:55 | 49.51857 | -2.47104 | 15785 ft | 392 kts | 317° |
| 2026-05-04 19:56 | 49.53856 | -2.49982 | 16422 ft | 396 kts | 317° |
| 2026-05-04 19:56 | 49.55873 | -2.52926 | 17076 ft | 400 kts | 317° |
| 2026-05-04 19:56 | 49.57896 | -2.55882 | 17734 ft | 403 kts | 317° |
| 2026-05-04 19:56 | 49.59941 | -2.58862 | 18360 ft | 406 kts | 317° |
| 2026-05-04 19:57 | 49.62007 | -2.61863 | 18927 ft | 410 kts | 317° |
| 2026-05-04 19:57 | 49.64096 | -2.64886 | 19480 ft | 414 kts | 317° |
| 2026-05-04 19:57 | 49.66212 | -2.67944 | 19884 ft | 417 kts | 317° |
| 2026-05-04 19:57 | 49.68337 | -2.71011 | 20007 ft | 423 kts | 316° |
| 2026-05-04 19:58 | 49.70527 | -2.74179 | 20019 ft | 440 kts | 316° |
| 2026-05-04 19:58 | 49.72787 | -2.77460 | 20015 ft | 449 kts | 317° |
| 2026-05-04 19:58 | 49.75069 | -2.80774 | 20019 ft | 450 kts | 317° |
| 2026-05-04 19:58 | 49.77348 | -2.84090 | 20021 ft | 450 kts | 317° |
| 2026-05-04 19:59 | 49.79631 | -2.87410 | 20021 ft | 450 kts | 317° |
| 2026-05-04 19:59 | 49.81917 | -2.90737 | 20022 ft | 450 kts | 317° |
| 2026-05-04 19:59 | 49.84169 | -2.94023 | 20022 ft | 450 kts | 317° |
| 2026-05-04 19:59 | 49.86444 | -2.97347 | 20022 ft | 450 kts | 317° |
| 2026-05-04 20:00 | 49.88725 | -3.00680 | 20021 ft | 450 kts | 317° |
| 2026-05-04 20:00 | 49.90998 | -3.04019 | 20025 ft | 450 kts | 316° |
| 2026-05-04 20:00 | 49.93268 | -3.07369 | 20018 ft | 450 kts | 317° |
| 2026-05-04 20:00 | 49.95538 | -3.10723 | 20022 ft | 450 kts | 317° |
| 2026-05-04 20:01 | 49.97807 | -3.14078 | 20027 ft | 450 kts | 316° |
| 2026-05-04 20:01 | 49.99927 | -3.17659 | 20028 ft | 450 kts | 308° |
| 2026-05-04 20:01 | 50.01678 | -3.21684 | 20036 ft | 450 kts | 300° |
| 2026-05-04 20:01 | 50.03301 | -3.25849 | 20030 ft | 450 kts | 304° |
| 2026-05-04 20:02 | 50.05246 | -3.29659 | 20024 ft | 450 kts | 313° |
| 2026-05-04 20:02 | 50.07552 | -3.32941 | 20023 ft | 449 kts | 323° |
| 2026-05-04 20:02 | 50.10162 | -3.35606 | 20018 ft | 448 kts | 332° |
| 2026-05-04 20:02 | 50.12932 | -3.37831 | 20019 ft | 448 kts | 334° |
| 2026-05-04 20:03 | 50.15677 | -3.40027 | 20008 ft | 448 kts | 333° |
| 2026-05-04 20:03 | 50.18450 | -3.42260 | 20004 ft | 449 kts | 333° |
| 2026-05-04 20:03 | 50.21221 | -3.44500 | 20002 ft | 449 kts | 333° |
| 2026-05-04 20:03 | 50.24003 | -3.46732 | 20002 ft | 449 kts | 335° |
| 2026-05-04 20:04 | 50.26910 | -3.48480 | 20000 ft | 448 kts | 345° |
| 2026-05-04 20:04 | 50.29950 | -3.49493 | 20002 ft | 447 kts | 354° |
| 2026-05-04 20:04 | 50.33049 | -3.49757 | 20003 ft | 445 kts | 3° |
| 2026-05-04 20:04 | 50.36140 | -3.49583 | 20006 ft | 445 kts | 4° |
| 2026-05-04 20:05 | 50.39232 | -3.49405 | 19998 ft | 445 kts | 4° |
| 2026-05-04 20:05 | 50.42330 | -3.49129 | 19997 ft | 445 kts | 6° |
| 2026-05-04 20:05 | 50.45414 | -3.48684 | 19997 ft | 445 kts | 7° |
| 2026-05-04 20:05 | 50.48492 | -3.48121 | 20001 ft | 445 kts | 8° |
| 2026-05-04 20:06 | 50.51567 | -3.47509 | 20002 ft | 445 kts | 9° |
| 2026-05-04 20:06 | 50.54644 | -3.46902 | 20004 ft | 446 kts | 8° |
| 2026-05-04 20:06 | 50.57725 | -3.46327 | 20005 ft | 446 kts | 8° |
| 2026-05-04 20:06 | 50.60808 | -3.45783 | 20000 ft | 446 kts | 7° |
| 2026-05-04 20:07 | 50.63898 | -3.45259 | 20005 ft | 447 kts | 7° |
| 2026-05-04 20:07 | 50.66995 | -3.44747 | 20008 ft | 447 kts | 7° |
| 2026-05-04 20:07 | 50.70091 | -3.44233 | 20009 ft | 448 kts | 7° |
| 2026-05-04 20:07 | 50.73192 | -3.43712 | 20011 ft | 448 kts | 7° |
| 2026-05-04 20:08 | 50.76292 | -3.43185 | 20011 ft | 448 kts | 7° |
| 2026-05-04 20:08 | 50.79351 | -3.42660 | 20013 ft | 448 kts | 7° |
| 2026-05-04 20:08 | 50.82443 | -3.42129 | 19940 ft | 445 kts | 7° |
| 2026-05-04 20:08 | 50.85495 | -3.41599 | 19665 ft | 438 kts | 7° |
| 2026-05-04 20:09 | 50.88506 | -3.41074 | 18995 ft | 434 kts | 7° |
| 2026-05-04 20:09 | 50.91497 | -3.40552 | 18329 ft | 430 kts | 7° |
| 2026-05-04 20:09 | 50.94461 | -3.40036 | 17638 ft | 426 kts | 7° |
| 2026-05-04 20:09 | 50.97387 | -3.39529 | 17043 ft | 420 kts | 7° |
| 2026-05-04 20:10 | 51.00266 | -3.39032 | 16692 ft | 410 kts | 7° |
| 2026-05-04 20:10 | 51.03042 | -3.38552 | 16553 ft | 390 kts | 7° |
| 2026-05-04 20:10 | 51.05637 | -3.38104 | 16421 ft | 361 kts | 7° |
| 2026-05-04 20:10 | 51.08056 | -3.37687 | 16195 ft | 340 kts | 7° |
| 2026-05-04 20:11 | 51.10373 | -3.37285 | 15651 ft | 332 kts | 7° |
| 2026-05-04 20:11 | 51.12649 | -3.36889 | 15018 ft | 327 kts | 7° |
| 2026-05-04 20:11 | 51.14900 | -3.36481 | 14368 ft | 324 kts | 9° |
| 2026-05-04 20:11 | 51.17036 | -3.35458 | 13736 ft | 319 kts | 27° |
| 2026-05-04 20:12 | 51.18958 | -3.33688 | 12694 ft | 323 kts | 29° |
| 2026-05-04 20:12 | 51.21120 | -3.32581 | 11622 ft | 331 kts | 4° |
| 2026-05-04 20:12 | 51.23335 | -3.32491 | 11420 ft | 309 kts | 0° |
| 2026-05-04 20:12 | 51.25458 | -3.32480 | 11207 ft | 302 kts | 0° |
| 2026-05-04 20:13 | 51.27544 | -3.32477 | 10892 ft | 298 kts | 0° |
| 2026-05-04 20:13 | 51.29599 | -3.32476 | 10350 ft | 294 kts | 0° |
| 2026-05-04 20:13 | 51.31614 | -3.32465 | 9690 ft | 292 kts | 0° |
| 2026-05-04 20:13 | 51.33637 | -3.32450 | 9031 ft | 289 kts | 0° |
| 2026-05-04 20:14 | 51.35635 | -3.32437 | 8352 ft | 286 kts | 0° |
| 2026-05-04 20:14 | 51.37601 | -3.32588 | 7721 ft | 280 kts | 357° |
| 2026-05-04 20:14 | 51.39491 | -3.32148 | 7108 ft | 273 kts | 23° |
| 2026-05-04 20:14 | 51.41001 | -3.30400 | 6496 ft | 268 kts | 51° |
| 2026-05-04 20:15 | 51.41789 | -3.27740 | 5931 ft | 268 kts | 80° |
| 2026-05-04 20:15 | 51.41666 | -3.24806 | 5540 ft | 266 kts | 109° |
| 2026-05-04 20:15 | 51.40680 | -3.22400 | 5409 ft | 255 kts | 135° |
| 2026-05-04 20:15 | 51.39375 | -3.20574 | 5278 ft | 243 kts | 140° |
| 2026-05-04 20:16 | 51.38092 | -3.18899 | 5148 ft | 232 kts | 137° |
| 2026-05-04 20:16 | 51.37102 | -3.16966 | 5011 ft | 219 kts | 116° |
| 2026-05-04 20:16 | 51.36620 | -3.14740 | 4892 ft | 206 kts | 96° |
| 2026-05-04 20:16 | 51.36603 | -3.12517 | 4764 ft | 196 kts | 84° |
| 2026-05-04 20:17 | 51.36696 | -3.10378 | 4587 ft | 191 kts | 84° |
| 2026-05-04 20:17 | 51.36786 | -3.08272 | 4355 ft | 189 kts | 84° |
| 2026-05-04 20:17 | 51.36875 | -3.06184 | 4120 ft | 187 kts | 84° |
| 2026-05-04 20:17 | 51.36962 | -3.04112 | 4011 ft | 187 kts | 84° |
| 2026-05-04 20:18 | 51.37048 | -3.02039 | 3905 ft | 187 kts | 84° |
| 2026-05-04 20:18 | 51.37135 | -2.99972 | 3835 ft | 186 kts | 84° |
| 2026-05-04 20:18 | 51.37220 | -2.97904 | 3660 ft | 186 kts | 85° |
| 2026-05-04 20:18 | 51.37305 | -2.95846 | 3435 ft | 185 kts | 85° |
| 2026-05-04 20:19 | 51.37390 | -2.93794 | 3196 ft | 184 kts | 85° |
| 2026-05-04 20:19 | 51.37473 | -2.91751 | 2945 ft | 184 kts | 85° |
| 2026-05-04 20:19 | 51.37556 | -2.89721 | 2729 ft | 180 kts | 85° |
| 2026-05-04 20:19 | 51.37636 | -2.87740 | 2455 ft | 175 kts | 84° |
| 2026-05-04 20:20 | 51.37711 | -2.85870 | 2222 ft | 163 kts | 84° |
| 2026-05-04 20:20 | 51.37782 | -2.84124 | 2008 ft | 151 kts | 84° |
| 2026-05-04 20:20 | 51.37846 | -2.82506 | 1806 ft | 141 kts | 84° |
| 2026-05-04 20:20 | 51.37908 | -2.80967 | 1633 ft | 137 kts | 83° |
| 2026-05-04 20:21 | 51.37968 | -2.79473 | 1445 ft | 137 kts | 84° |
| 2026-05-04 20:21 | 51.38029 | -2.77948 | 1253 ft | 137 kts | 84° |
| 2026-05-04 20:21 | 51.38155 | -2.74898 | 849 ft | 139 kts | 86° |
| 2026-05-04 20:22 | 51.38214 | -2.73362 | 671 ft | 137 kts | 87° |
| 2026-05-04 20:22 | 51.38266 | -2.71946 | 622 ft | 110 kts | 86° |
| 2026-05-04 20:22 | 51.38304 | -2.70990 | 613 ft | 61 kts | 86° |
| 2026-05-04 20:22 | 51.38320 | -2.70572 | 612 ft | 23 kts | 88° |
| 2026-05-04 20:23 | 51.38417 | -2.70512 | 614 ft | 16 kts | 341° |
| 2026-05-04 20:23 | 51.38461 | -2.70543 | 617 ft | 0 kts | 321° |
| 2026-05-04 20:23 | 51.38462 | -2.70543 | 617 ft | 1 kts | 321° |
| 2026-05-04 20:23 | 51.38475 | -2.70571 | 615 ft | 3 kts | 295° |
| 2026-05-04 20:24 | 51.38477 | -2.70666 | 615 ft | 14 kts | 268° |
| 2026-05-04 20:24 | 51.38473 | -2.70783 | 612 ft | 7 kts | 272° |
| 2026-05-04 20:24 | 51.38494 | -2.70827 | 618 ft | 4 kts | 336° |
| 2026-05-04 20:24 | 51.38534 | -2.70834 | 617 ft | 6 kts | 357° |
| 2026-05-04 20:25 | 51.38563 | -2.70846 | 613 ft | 3 kts | 326° |
| 2026-05-04 20:25 | 51.38568 | -2.70870 | 625 ft | 5 kts | 279° |
| 2026-05-04 20:25 | 51.38568 | -2.70905 | 623 ft | 0 kts | 268° |